Time;durP1;ratioP1;P1;durP2;ratioP2;P2;SDS_P1;SDS_P2;PMS_P1;PMS_P2;Temp;Humidity;BMP_temperature;BMP_pressure;BME280_temperature;BME280_humidity;BME280_pressure;Samples;Min_cycle;Max_cycle;Signal;HPM_P1;HPM_P2
2021/01/04 04:02:01;;;;;;;18.23;11.97;;;;;;;-0.67;100.00;101726.25;1689668;78;21240;-60
2021/01/04 04:04:30;;;;;;;20.92;13.05;;;;;;;-0.68;100.00;101734.81;1706360;82;22268;-59
2021/01/04 04:06:58;;;;;;;20.65;12.65;;;;;;;-0.71;100.00;101723.00;1697736;81;21213;-58
2021/01/04 04:09:27;;;;;;;21.57;12.13;;;;;;;-0.71;100.00;101726.02;1718874;82;21191;-61
2021/01/04 04:11:55;;;;;;;21.50;12.75;;;;;;;-0.75;100.00;101723.60;1753852;81;21487;-60
2021/01/04 04:14:23;;;;;;;21.02;12.98;;;;;;;-0.75;100.00;101732.56;1747276;81;21598;-60
2021/01/04 04:16:52;;;;;;;19.50;11.43;;;;;;;-0.74;100.00;101738.05;1743733;81;21633;-60
2021/01/04 04:19:20;;;;;;;16.97;10.78;;;;;;;-0.74;100.00;101739.34;1751150;80;22202;-59
2021/01/04 04:21:52;;;;;;;19.52;11.75;;;;;;;-0.74;100.00;101739.34;1722893;83;22027;-58
2021/01/04 04:24:21;;;;;;;20.03;13.53;;;;;;;-0.74;100.00;101737.23;1744460;81;21245;-59
2021/01/04 04:26:52;;;;;;;18.48;11.00;;;;;;;-0.74;100.00;101736.77;1759130;81;21056;-59
2021/01/04 04:29:21;;;;;;;20.55;13.55;;;;;;;-0.71;100.00;101741.38;1744712;81;21569;-60
2021/01/04 04:31:50;;;;;;;20.00;12.43;;;;;;;-0.69;100.00;101742.13;1756942;80;21372;-60
2021/01/04 04:34:18;;;;;;;20.15;11.85;;;;;;;-0.66;100.00;101742.81;1738243;81;21018;-60
2021/01/04 04:36:47;;;;;;;17.52;11.40;;;;;;;-0.64;100.00;101742.75;1748273;81;20991;-58
2021/01/04 04:39:16;;;;;;;16.77;12.00;;;;;;;-0.65;100.00;101740.61;1748146;81;21081;-59
2021/01/04 04:41:46;;;;;;;18.87;12.35;;;;;;;-0.64;100.00;101738.91;1749672;81;21156;-59
2021/01/04 04:44:30;;;;;;;18.75;11.80;;;;;;;-0.64;100.00;101728.66;1744122;81;21193;-59
2021/01/04 04:47:26;;;;;;;18.70;11.83;;;;;;;-0.63;100.00;101743.13;1750163;81;20978;-59
2021/01/04 04:50:22;;;;;;;23.50;13.08;;;;;;;-0.66;100.00;101737.69;1754193;80;21487;-59
2021/01/04 04:53:28;;;;;;;21.68;13.18;;;;;;;-0.69;100.00;101739.56;1758201;80;21085;-60
2021/01/04 04:56:35;;;;;;;20.27;12.03;;;;;;;-0.70;100.00;101735.35;1746050;81;21216;-60
2021/01/04 04:59:32;;;;;;;22.20;13.98;;;;;;;-0.73;100.00;101746.56;1749096;81;21538;-60
2021/01/04 05:02:17;;;;;;;19.98;12.55;;;;;;;-0.75;100.00;101744.09;1754977;81;21120;-59
2021/01/04 05:05:21;;;;;;;18.02;11.80;;;;;;;-0.77;100.00;101748.44;1748274;81;22308;-59
2021/01/04 05:08:11;;;;;;;17.65;11.00;;;;;;;-0.80;100.00;101743.45;1752997;80;21053;-59
2021/01/04 05:10:40;;;;;;;13.53;9.23;;;;;;;-0.81;100.00;101752.50;1731048;82;21192;-59
2021/01/04 05:13:23;;;;;;;13.28;8.88;;;;;;;-0.83;100.00;101750.03;1737011;82;22107;-60
2021/01/04 05:16:05;;;;;;;15.00;9.70;;;;;;;-0.83;100.00;101769.23;1745322;82;21220;-59
2021/01/04 05:19:28;;;;;;;13.85;9.48;;;;;;;-0.82;100.00;101762.37;1740138;82;21057;-59
2021/01/04 05:22:53;;;;;;;14.28;9.03;;;;;;;-0.83;100.00;101762.83;1744355;81;21069;-60
2021/01/04 05:26:02;;;;;;;15.78;10.65;;;;;;;-0.82;100.00;101763.20;1741419;81;21113;-59
2021/01/04 05:29:00;;;;;;;13.60;9.50;;;;;;;-0.83;100.00;101762.83;1726476;82;21233;-59
2021/01/04 05:31:50;;;;;;;14.75;9.38;;;;;;;-0.84;100.00;101764.98;1739385;82;20927;-59
2021/01/04 05:34:33;;;;;;;15.38;10.28;;;;;;;-0.83;100.00;101765.39;1738718;82;21558;-58
2021/01/04 05:37:32;;;;;;;13.58;8.65;;;;;;;-0.84;100.00;101768.83;1731694;80;21126;-60
2021/01/04 05:40:46;;;;;;;13.75;8.90;;;;;;;-0.83;100.00;101770.51;1734026;82;21018;-59
2021/01/04 05:43:26;;;;;;;14.98;9.33;;;;;;;-0.82;100.00;101771.34;1723154;82;21298;-58
2021/01/04 05:46:17;;;;;;;13.85;9.45;;;;;;;-0.81;100.00;101767.86;1699754;83;21172;-58
2021/01/04 05:49:11;;;;;;;14.65;8.43;;;;;;;-0.81;100.00;101765.30;1724395;83;21371;-58
2021/01/04 05:51:43;;;;;;;12.78;8.95;;;;;;;-0.80;100.00;101777.20;1739905;80;21029;-60
2021/01/04 05:54:12;;;;;;;16.48;9.78;;;;;;;-0.82;100.00;101763.20;1739216;82;21261;-59
2021/01/04 05:56:41;;;;;;;13.10;9.20;;;;;;;-0.82;100.00;101759.81;1737422;81;22304;-58
2021/01/04 05:59:12;;;;;;;11.95;8.73;;;;;;;-0.81;100.00;101770.42;1726013;83;21472;-58
2021/01/04 06:01:42;;;;;;;11.93;8.05;;;;;;;-0.80;100.00;101769.06;1704710;83;21213;-61
2021/01/04 06:04:14;;;;;;;15.03;9.35;;;;;;;-0.79;100.00;101774.58;1691621;84;21412;-59
2021/01/04 06:06:59;;;;;;;11.78;8.20;;;;;;;-0.76;100.00;101768.04;1685186;84;21584;-58
2021/01/04 06:09:28;;;;;;;13.55;8.15;;;;;;;-0.75;100.00;101769.69;1691304;84;21153;-60
2021/01/04 06:12:05;;;;;;;12.60;8.28;;;;;;;-0.74;100.00;101770.52;1700818;83;22351;-59
2021/01/04 06:14:36;;;;;;;13.05;8.65;;;;;;;-0.74;100.00;101762.37;1660674;86;21031;-59
2021/01/04 06:17:12;;;;;;;12.33;8.65;;;;;;;-0.72;100.00;101772.99;1673889;85;21239;-59
2021/01/04 06:19:42;;;;;;;13.93;8.98;;;;;;;-0.70;100.00;101774.59;1707864;83;22364;-59
2021/01/04 06:22:12;;;;;;;15.35;8.83;;;;;;;-0.70;100.00;101768.19;1677638;84;21069;-58
2021/01/04 06:24:40;;;;;;;15.28;9.88;;;;;;;-0.69;100.00;101772.85;1673051;85;21708;-58
2021/01/04 06:27:20;;;;;;;14.45;8.33;;;;;;;-0.67;100.00;101763.38;1682407;84;20938;-59
2021/01/04 06:29:50;;;;;;;15.93;9.88;;;;;;;-0.65;100.00;101767.50;1680866;84;22050;-59
2021/01/04 06:32:28;;;;;;;17.20;11.10;;;;;;;-0.63;100.00;101760.59;1711219;83;21271;-58
2021/01/04 06:35:00;;;;;;;17.12;12.23;;;;;;;-0.60;100.00;101762.19;1714769;82;22292;-60
2021/01/04 06:37:29;;;;;;;16.97;10.63;;;;;;;-0.56;100.00;101768.36;1713508;82;21984;-58
2021/01/04 06:40:14;;;;;;;14.18;9.78;;;;;;;-0.51;100.00;101770.23;1700345;83;20954;-58
2021/01/04 06:42:43;;;;;;;18.55;11.38;;;;;;;-0.48;100.00;101758.20;1684379;84;21022;-59
2021/01/04 06:45:19;;;;;;;17.62;11.25;;;;;;;-0.45;100.00;101756.31;1688543;83;21718;-58
2021/01/04 06:48:05;;;;;;;18.20;10.53;;;;;;;-0.42;100.00;101754.03;1682857;84;22147;-58
2021/01/04 06:51:16;;;;;;;16.60;11.00;;;;;;;-0.38;100.00;101761.95;1688605;83;21295;-58
2021/01/04 06:54:10;;;;;;;17.67;10.70;;;;;;;-0.33;100.00;101753.14;1624947;84;21152;-61
2021/01/04 06:57:27;;;;;;;15.18;9.40;;;;;;;-0.26;100.00;101748.09;1655297;84;21204;-59
2021/01/04 07:00:09;;;;;;;20.55;12.28;;;;;;;-0.21;100.00;101742.73;1747811;80;21185;-59
2021/01/04 07:03:11;;;;;;;18.65;12.20;;;;;;;-0.17;100.00;101742.13;1751756;80;21358;-59
2021/01/04 07:06:11;;;;;;;16.33;11.30;;;;;;;-0.12;100.00;101749.95;1748902;80;21475;-59
2021/01/04 07:09:26;;;;;;;19.00;11.40;;;;;;;-0.11;100.00;101740.55;1736497;80;21010;-60
2021/01/04 07:12:27;;;;;;;17.90;11.00;;;;;;;-0.08;100.00;101741.65;1750250;81;21677;-59
2021/01/04 07:15:19;;;;;;;13.55;8.73;;;;;;;-0.10;100.00;101745.59;1732403;80;21056;-58
2021/01/04 07:18:10;;;;;;;;;;;;;;;-0.12;100.00;101736.31;1755035;81;21260;-57
2021/01/04 07:21:01;;;;;;;15.75;10.78;;;;;;;-0.15;100.00;101738.59;1742391;82;20221;-59
2021/01/04 07:23:44;;;;;;;16.65;10.15;;;;;;;-0.17;100.00;101736.55;1738993;82;21603;-60
2021/01/04 07:26:30;;;;;;;19.45;12.55;;;;;;;-0.13;100.00;101741.06;1746673;80;20948;-60
2021/01/04 07:29:28;;;;;;;18.98;12.43;;;;;;;-0.10;100.00;101738.36;1744583;81;20939;-59
2021/01/04 07:32:13;;;;;;;15.05;9.68;;;;;;;-0.05;100.00;101751.75;1749425;80;21199;-60
2021/01/04 07:34:54;;;;;;;17.75;11.95;;;;;;;0.01;100.00;101754.02;1749587;81;21274;-60
2021/01/04 07:37:58;;;;;;;17.30;11.12;;;;;;;0.03;100.00;101744.50;1711890;83;21137;-59
2021/01/04 07:40:49;;;;;;;18.35;10.90;;;;;;;0.06;100.00;101746.91;1715253;82;21486;-59
2021/01/04 07:43:41;;;;;;;18.17;11.33;;;;;;;0.10;100.00;101740.72;1715871;81;21192;-60
2021/01/04 07:46:47;;;;;;;14.60;10.37;;;;;;;0.14;100.00;101739.66;1692949;83;21395;-58
2021/01/04 07:49:45;;;;;;;26.70;15.68;;;;;;;0.16;100.00;101740.88;1749667;80;21892;-59
2021/01/04 07:52:50;;;;;;;28.85;19.30;;;;;;;0.20;100.00;101740.62;1742550;80;20989;-59
2021/01/04 07:55:59;;;;;;;26.48;15.28;;;;;;;0.29;100.00;101747.47;1753235;80;21597;-62
2021/01/04 07:59:09;;;;;;;17.30;11.50;;;;;;;0.39;100.00;101740.95;1675634;85;21544;-60
2021/01/04 08:02:30;;;;;;;17.65;11.78;;;;;;;0.47;100.00;101745.22;1755153;79;21383;-60
2021/01/04 08:05:33;;;;;;;17.50;11.50;;;;;;;0.51;100.00;101733.88;1749454;80;21061;-59
2021/01/04 08:08:43;;;;;;;19.98;12.30;;;;;;;0.50;100.00;101733.52;1739841;79;21566;-58
2021/01/04 08:11:37;;;;;;;18.70;13.20;;;;;;;0.54;100.00;101731.16;1757697;79;21144;-60
2021/01/04 08:14:37;;;;;;;18.45;12.03;;;;;;;0.59;100.00;101725.31;1753762;79;21254;-59
2021/01/04 08:17:19;;;;;;;19.57;12.07;;;;;;;0.58;100.00;101720.28;1709585;80;21393;-59
2021/01/04 08:19:48;;;;;;;;;;;;;;;0.54;100.00;101709.35;1754121;79;21050;-60
2021/01/04 08:22:42;;;;;;;17.15;11.80;;;;;;;0.49;100.00;101713.88;1755191;80;20181;-59
2021/01/04 08:25:25;;;;;;;17.98;12.33;;;;;;;0.45;100.00;101713.67;1718109;80;21546;-59
2021/01/04 08:28:13;;;;;;;19.73;13.15;;;;;;;0.42;100.00;101705.71;1745011;80;21112;-59
2021/01/04 08:31:00;;;;;;;18.52;11.73;;;;;;;0.43;100.00;101694.98;1759141;80;21439;-59
2021/01/04 08:33:45;;;;;;;15.70;11.50;;;;;;;0.40;100.00;101699.81;1757095;80;21144;-59
2021/01/04 08:36:36;;;;;;;17.40;13.10;;;;;;;0.40;100.00;101701.56;1756063;80;21191;-59
2021/01/04 08:39:24;;;;;;;21.50;12.88;;;;;;;0.40;100.00;101688.73;1751769;80;21593;-58
2021/01/04 08:42:22;;;;;;;17.73;12.35;;;;;;;0.42;100.00;101690.78;1756718;80;21067;-59
2021/01/04 08:44:59;;;;;;;19.10;12.45;;;;;;;0.47;100.00;101688.78;1760304;80;21211;-60
2021/01/04 08:47:38;;;;;;;20.55;13.20;;;;;;;0.48;100.00;101701.97;1756017;80;21520;-58
2021/01/04 08:50:12;;;;;;;17.17;12.60;;;;;;;0.47;100.00;101684.47;1749941;80;21163;-59
2021/01/04 08:52:47;;;;;;;17.05;12.30;;;;;;;0.51;100.00;101680.00;1752955;80;21661;-61
2021/01/04 08:55:30;;;;;;;17.75;11.08;;;;;;;0.56;100.00;101675.44;1757094;80;21422;-59
2021/01/04 08:58:16;;;;;;;;;;;;;;;0.59;100.00;101683.44;1758707;80;22463;-60
2021/01/04 09:00:44;;;;;;;16.90;11.15;;;;;;;0.59;100.00;101677.84;1751910;80;20280;-60
2021/01/04 09:03:19;;;;;;;16.90;11.78;;;;;;;0.62;100.00;101687.13;1745577;80;21042;-60
2021/01/04 09:05:48;;;;;;;16.15;10.75;;;;;;;0.62;100.00;101677.69;1748080;80;21188;-59
2021/01/04 09:08:16;;;;;;;20.40;12.70;;;;;;;0.67;100.00;101678.25;1746318;80;20902;-59
2021/01/04 09:10:48;;;;;;;21.05;13.50;;;;;;;0.68;100.00;101673.52;1744417;80;21188;-59
2021/01/04 09:13:35;;;;;;;16.60;11.65;;;;;;;0.68;100.00;101671.38;1747669;80;21473;-58
2021/01/04 09:16:30;;;;;;;18.50;11.78;;;;;;;0.68;100.00;101654.27;1746688;80;21181;-61
2021/01/04 09:19:12;;;;;;;16.23;11.28;;;;;;;0.68;100.00;101676.08;1746496;80;21639;-59
2021/01/04 09:21:41;;;;;;;15.13;11.12;;;;;;;0.69;100.00;101654.63;1748459;80;21160;-59
2021/01/04 09:24:26;;;;;;;16.97;11.80;;;;;;;0.69;100.00;101645.64;1746529;80;21381;-59
2021/01/04 09:26:57;;;;;;;19.42;11.80;;;;;;;0.72;100.00;101641.63;1744999;80;21149;-60
2021/01/04 09:29:31;;;;;;;17.82;12.90;;;;;;;0.75;100.00;101651.34;1748784;80;21208;-57
2021/01/04 09:32:09;;;;;;;15.98;10.03;;;;;;;0.77;100.00;101640.55;1746568;80;21169;-58
2021/01/04 09:34:37;;;;;;;16.82;12.05;;;;;;;0.77;100.00;101639.27;1746276;80;21574;-61
2021/01/04 09:37:23;;;;;;;15.72;11.30;;;;;;;0.77;100.00;101645.68;1744704;80;22490;-58
2021/01/04 09:40:01;;;;;;;16.20;10.40;;;;;;;0.78;100.00;101638.34;1749749;80;21204;-61
2021/01/04 09:42:30;;;;;;;15.80;11.03;;;;;;;0.80;100.00;101633.97;1745266;80;21212;-59
2021/01/04 09:45:11;;;;;;;16.32;11.50;;;;;;;0.81;100.00;101629.19;1746318;80;21191;-58
2021/01/04 09:47:48;;;;;;;;;;;;;;;0.80;100.00;101627.09;1749913;80;21168;-58
2021/01/04 09:50:37;;;;;;;13.50;9.00;;;;;;;0.78;100.00;101609.65;1741543;80;21236;-58
2021/01/04 09:53:32;;;;;;;20.82;12.13;;;;;;;0.76;100.00;101626.89;1688235;83;21550;-57
2021/01/04 09:56:12;;;;;;;23.90;14.25;;;;;;;0.76;100.00;101618.34;1695855;83;21601;-58
2021/01/04 09:58:40;;;;;;;20.32;11.88;;;;;;;0.78;100.00;101610.11;1689495;83;21268;-59
2021/01/04 10:01:13;;;;;;;16.27;10.30;;;;;;;0.79;100.00;101623.30;1711644;82;21132;-59
2021/01/04 10:03:57;;;;;;;16.75;11.57;;;;;;;0.77;100.00;101614.88;1693528;82;21208;-57
2021/01/04 10:06:29;;;;;;;15.95;10.63;;;;;;;0.76;100.00;101614.06;1688523;83;21184;-60
2021/01/04 10:08:59;;;;;;;14.87;9.98;;;;;;;0.79;100.00;101609.19;1693979;84;21116;-59
2021/01/04 10:11:30;;;;;;;15.98;11.75;;;;;;;0.83;100.00;101611.95;1688150;83;21125;-59
2021/01/04 10:14:07;;;;;;;14.65;10.13;;;;;;;0.85;100.00;101617.84;1689778;83;21203;-58
2021/01/04 10:16:35;;;;;;;12.85;8.85;;;;;;;0.86;100.00;101606.65;1687364;83;22914;-59
2021/01/04 10:19:09;;;;;;;16.40;10.60;;;;;;;0.87;100.00;101605.72;1686529;83;21586;-59
2021/01/04 10:21:51;;;;;;;17.62;11.40;;;;;;;0.92;100.00;101599.89;1743431;80;21259;-59
2021/01/04 10:24:23;;;;;;;15.40;9.63;;;;;;;0.96;100.00;101593.66;1742165;80;21607;-59
2021/01/04 10:26:55;;;;;;;15.65;10.78;;;;;;;0.99;100.00;101584.52;1712194;82;21630;-59
2021/01/04 10:29:26;;;;;;;14.90;9.20;;;;;;;1.02;100.00;101592.47;1702573;83;21216;-58
2021/01/04 10:32:15;;;;;;;13.22;9.28;;;;;;;1.03;100.00;101586.45;1699909;83;21098;-59
2021/01/04 10:34:46;;;;;;;13.22;9.90;;;;;;;1.03;100.00;101585.98;1703267;83;21156;-58
2021/01/04 10:37:43;;;;;;;13.98;10.05;;;;;;;1.00;100.00;101582.30;1688659;82;21054;-59
2021/01/04 10:40:15;;;;;;;14.85;9.63;;;;;;;0.96;100.00;101569.28;1687476;83;21033;-59
2021/01/04 10:42:44;;;;;;;19.82;10.18;;;;;;;0.96;100.00;101566.25;1689810;83;21239;-59
2021/01/04 10:45:19;;;;;;;15.03;10.63;;;;;;;0.96;100.00;101559.83;1685910;83;21156;-58
2021/01/04 10:47:55;;;;;;;12.65;9.05;;;;;;;1.01;100.00;101571.57;1694382;83;21081;-57
2021/01/04 10:50:39;;;;;;;12.28;8.33;;;;;;;1.02;100.00;101553.50;1664996;84;21156;-58
2021/01/04 10:53:11;;;;;;;13.90;10.00;;;;;;;1.04;100.00;101552.97;1691371;83;21109;-58
2021/01/04 10:56:08;;;;;;;12.95;8.90;;;;;;;1.08;100.00;101546.73;1688805;83;21240;-58
2021/01/04 10:59:07;;;;;;;12.15;8.33;;;;;;;1.09;100.00;101557.36;1714127;82;21089;-58
2021/01/04 11:01:38;;;;;;;14.55;9.60;;;;;;;1.12;100.00;101541.78;1711561;82;21100;-58
2021/01/04 11:04:14;;;;;;;14.30;9.98;;;;;;;1.13;100.00;101545.17;1746703;80;21132;-57
2021/01/04 11:06:49;;;;;;;14.63;9.25;;;;;;;1.13;100.00;101537.00;1745708;80;21599;-60
2021/01/04 11:09:27;;;;;;;13.72;9.95;;;;;;;1.13;100.00;101534.44;1748761;80;21208;-57
2021/01/04 11:12:18;;;;;;;12.47;8.75;;;;;;;1.14;100.00;101527.12;1746595;80;21116;-57
2021/01/04 11:14:59;;;;;;;14.28;9.25;;;;;;;1.11;100.00;101533.72;1749150;80;21093;-57
2021/01/04 11:17:34;;;;;;;16.32;12.07;;;;;;;1.10;100.00;101538.50;1746621;80;21116;-58
2021/01/04 11:20:12;;;;;;;14.47;10.03;;;;;;;1.13;100.00;101545.17;1750095;80;21105;-57
2021/01/04 11:22:41;;;;;;;15.03;9.25;;;;;;;1.15;100.00;101537.75;1746166;80;21195;-58
2021/01/04 11:25:11;;;;;;;15.35;11.28;;;;;;;1.15;100.00;101531.33;1745519;80;21196;-58
2021/01/04 11:27:39;;;;;;;19.02;13.32;;;;;;;1.19;100.00;101538.40;1746931;80;21558;-58
2021/01/04 11:30:10;;;;;;;15.50;10.60;;;;;;;1.21;100.00;101531.41;1746026;80;21168;-57
2021/01/04 11:32:39;;;;;;;13.05;8.58;;;;;;;1.25;100.00;101559.88;1742208;80;21614;-60
2021/01/04 11:35:09;;;;;;;14.07;9.40;;;;;;;1.28;100.00;101542.16;1745490;80;21209;-58
2021/01/04 11:37:37;;;;;;;18.32;12.18;;;;;;;1.24;100.00;101531.70;1744552;80;21543;-58
2021/01/04 11:40:09;;;;;;;18.67;12.65;;;;;;;1.20;100.00;101538.76;1723784;81;21180;-58
2021/01/04 11:42:37;;;;;;;26.52;15.88;;;;;;;1.17;100.00;101539.76;1745050;80;21081;-59
2021/01/04 11:45:08;;;;;;;24.80;14.53;;;;;;;1.17;100.00;101543.61;1746192;80;21116;-59
2021/01/04 11:47:37;;;;;;;19.27;12.75;;;;;;;1.15;100.00;101555.73;1743949;80;21326;-57
2021/01/04 11:50:08;;;;;;;27.30;16.80;;;;;;;1.14;100.00;101537.39;1746426;80;21188;-57
2021/01/04 11:52:37;;;;;;;19.62;13.10;;;;;;;1.12;100.00;101535.36;1743396;80;21504;-58
2021/01/04 11:55:09;;;;;;;14.70;10.45;;;;;;;1.10;100.00;101543.62;1747508;80;21078;-58
2021/01/04 11:57:38;;;;;;;20.15;13.28;;;;;;;1.08;100.00;101536.92;1740172;80;21133;-58
2021/01/04 12:00:09;;;;;;;22.58;13.62;;;;;;;1.04;100.00;101539.30;1747314;80;21373;-58
2021/01/04 12:02:37;;;;;;;14.18;10.53;;;;;;;0.99;100.00;101531.87;1743727;80;21074;-60
2021/01/04 12:05:07;;;;;;;18.15;12.28;;;;;;;0.98;100.00;101532.77;1745411;80;21689;-58
2021/01/04 12:07:35;;;;;;;15.83;9.20;;;;;;;0.96;100.00;101534.16;1744358;80;21557;-57
2021/01/04 12:10:06;;;;;;;18.98;14.13;;;;;;;0.95;100.00;101526.09;1745843;80;21574;-58
2021/01/04 12:12:34;;;;;;;16.42;11.40;;;;;;;0.92;100.00;101519.84;1743105;80;21230;-59
2021/01/04 12:15:05;;;;;;;20.35;14.38;;;;;;;0.91;100.00;101523.34;1747702;80;21451;-58
2021/01/04 12:17:33;;;;;;;22.48;15.08;;;;;;;0.88;100.00;101527.83;1747511;80;21192;-58
2021/01/04 12:20:06;;;;;;;20.37;11.83;;;;;;;0.86;100.00;101534.77;1746209;80;21215;-58
2021/01/04 12:22:34;;;;;;;19.75;13.48;;;;;;;0.81;100.00;101536.79;1747859;80;21606;-59
2021/01/04 12:25:04;;;;;;;19.02;12.50;;;;;;;0.78;100.00;101526.70;1747689;80;22703;-58
2021/01/04 12:27:32;;;;;;;24.12;16.27;;;;;;;0.74;100.00;101526.05;1750671;80;21118;-57
2021/01/04 12:30:01;;;;;;;39.95;26.35;;;;;;;0.74;100.00;101537.59;1744833;80;21201;-58
2021/01/04 12:32:30;;;;;;;38.35;27.35;;;;;;;0.72;100.00;101534.30;1747152;80;21448;-58
2021/01/04 12:34:59;;;;;;;18.23;13.75;;;;;;;0.71;100.00;101536.02;1753632;80;21211;-57
2021/01/04 12:37:29;;;;;;;16.17;12.03;;;;;;;0.70;100.00;101533.55;1751122;80;21719;-57
2021/01/04 12:39:57;;;;;;;15.53;11.10;;;;;;;0.67;100.00;101546.55;1753388;80;21041;-57
2021/01/04 12:42:25;;;;;;;16.00;11.57;;;;;;;0.64;100.00;101535.17;1758542;80;21137;-57
2021/01/04 12:44:53;;;;;;;43.92;26.27;;;;;;;0.61;100.00;101527.22;1749695;80;22414;-60
2021/01/04 12:47:21;;;;;;;49.38;30.95;;;;;;;0.59;100.00;101529.48;1754154;80;21113;-57
2021/01/04 12:49:50;;;;;;;21.33;15.72;;;;;;;0.58;100.00;101533.80;1756661;80;22592;-57
2021/01/04 12:52:18;;;;;;;15.55;11.00;;;;;;;0.58;100.00;101527.38;1756780;80;20931;-57
2021/01/04 12:54:47;;;;;;;14.35;9.00;;;;;;;0.56;100.00;101531.76;1752632;80;21121;-58
2021/01/04 12:57:15;;;;;;;13.83;9.98;;;;;;;0.56;100.00;101527.09;1757125;80;21097;-57
2021/01/04 12:59:43;;;;;;;14.45;9.83;;;;;;;0.54;100.00;101538.73;1713013;82;21188;-58
2021/01/04 13:02:14;;;;;;;13.65;9.18;;;;;;;0.50;100.00;101533.41;1710052;82;21377;-60
2021/01/04 13:04:43;;;;;;;14.43;9.28;;;;;;;0.50;100.00;101548.80;1704630;83;21259;-57
2021/01/04 13:07:12;;;;;;;15.48;10.45;;;;;;;0.51;100.00;101545.78;1686903;83;21644;-57
2021/01/04 13:09:40;;;;;;;17.15;10.98;;;;;;;0.52;100.00;101537.16;1702830;83;21086;-57
2021/01/04 13:12:09;;;;;;;14.50;9.38;;;;;;;0.50;100.00;101551.37;1699763;83;21178;-58
2021/01/04 13:14:37;;;;;;;16.00;10.35;;;;;;;0.49;100.00;101536.86;1693812;83;21208;-58
2021/01/04 13:17:07;;;;;;;14.87;10.65;;;;;;;0.46;100.00;101545.58;1686372;83;21658;-58
2021/01/04 13:19:35;;;;;;;14.65;10.95;;;;;;;0.46;100.00;101543.47;1692341;83;21504;-58
2021/01/04 13:22:03;;;;;;;16.02;10.00;;;;;;;0.46;100.00;101540.45;1693545;83;21770;-58
2021/01/04 13:24:32;;;;;;;16.55;10.53;;;;;;;0.47;100.00;101547.69;1759395;80;21450;-59
2021/01/04 13:27:00;;;;;;;18.20;11.75;;;;;;;0.48;100.00;101541.63;1759015;80;22403;-58
2021/01/04 13:29:30;;;;;;;14.55;9.95;;;;;;;0.47;100.00;101535.68;1763393;80;21137;-58
2021/01/04 13:32:07;;;;;;;15.05;10.53;;;;;;;0.49;100.00;101545.84;1762373;80;22321;-58
2021/01/04 13:34:35;;;;;;;18.17;11.60;;;;;;;0.48;100.00;101532.66;1761304;80;21203;-58
2021/01/04 13:37:05;;;;;;;17.10;11.03;;;;;;;0.47;100.00;101538.25;1758696;80;21129;-57
2021/01/04 13:39:33;;;;;;;14.75;10.98;;;;;;;0.46;100.00;101544.76;1760626;80;21366;-57
2021/01/04 13:42:01;;;;;;;15.45;10.43;;;;;;;0.46;100.00;101540.45;1753937;80;21137;-58
2021/01/04 13:44:30;;;;;;;13.40;9.33;;;;;;;0.46;100.00;101541.73;1762044;80;21243;-58
2021/01/04 13:47:01;;;;;;;18.27;13.03;;;;;;;0.48;100.00;101533.94;1759218;80;21136;-58
2021/01/04 13:49:30;;;;;;;19.62;12.45;;;;;;;0.47;100.00;101529.73;1760555;80;21069;-57
2021/01/04 13:51:59;;;;;;;18.10;11.88;;;;;;;0.46;100.00;101528.09;1754919;80;21180;-59
2021/01/04 13:54:28;;;;;;;16.50;11.60;;;;;;;0.47;100.00;101531.02;1759936;80;21212;-58
2021/01/04 13:56:56;;;;;;;18.52;12.45;;;;;;;0.48;100.00;101537.78;1758769;80;21125;-57
2021/01/04 13:59:25;;;;;;;16.77;10.55;;;;;;;0.48;100.00;101549.33;1757942;80;21105;-57
2021/01/04 14:02:03;;;;;;;15.98;10.60;;;;;;;0.48;100.00;101542.92;1755303;80;21037;-58
2021/01/04 14:04:31;;;;;;;17.48;11.57;;;;;;;0.49;100.00;101533.02;1745330;80;21364;-58
2021/01/04 14:07:00;;;;;;;17.20;11.43;;;;;;;0.48;100.00;101530.09;1731050;81;20967;-58
2021/01/04 14:09:28;;;;;;;18.90;12.58;;;;;;;0.48;100.00;101523.67;1732940;81;21115;-58
2021/01/04 14:11:58;;;;;;;17.15;10.63;;;;;;;0.48;100.00;101527.52;1726975;81;21515;-58
2021/01/04 14:14:27;;;;;;;14.10;10.05;;;;;;;0.48;100.00;101533.94;1734046;82;21607;-57
2021/01/04 14:16:56;;;;;;;21.20;12.25;;;;;;;0.50;100.00;101536.44;1730584;81;21215;-58
2021/01/04 14:19:25;;;;;;;15.28;10.43;;;;;;;0.50;100.00;101550.09;1734173;81;21169;-58
2021/01/04 14:21:59;;;;;;;17.45;10.25;;;;;;;0.52;100.00;101544.39;1729721;81;21193;-59
2021/01/04 14:24:23;;;;;;;19.02;13.93;;;;;;;0.53;100.00;101547.78;1730140;81;22522;-58
2021/01/04 14:26:51;;;;;;;16.50;12.13;;;;;;;0.54;100.00;101548.17;1726109;81;21189;-57
2021/01/04 14:29:20;;;;;;;17.90;10.98;;;;;;;0.54;100.00;101555.87;1730631;81;22480;-58
2021/01/04 14:31:48;;;;;;;16.23;11.38;;;;;;;0.57;100.00;101556.53;1728554;81;22557;-59
2021/01/04 14:34:16;;;;;;;19.52;13.60;;;;;;;0.58;100.00;101555.61;1690162;81;21469;-59
2021/01/04 14:36:45;;;;;;;17.87;12.78;;;;;;;0.58;100.00;101553.04;1737751;81;21590;-59
2021/01/04 14:39:13;;;;;;;18.62;12.82;;;;;;;0.60;100.00;101551.66;1734201;81;21091;-59
2021/01/04 14:41:42;;;;;;;17.40;11.05;;;;;;;0.59;100.00;101544.88;1731965;81;22378;-59
2021/01/04 14:44:13;;;;;;;15.75;10.45;;;;;;;0.57;100.00;101543.70;1728849;81;21517;-59
2021/01/04 14:46:43;;;;;;;18.82;12.18;;;;;;;0.55;100.00;101535.25;1726674;81;21177;-57
2021/01/04 14:49:11;;;;;;;17.10;11.22;;;;;;;0.54;100.00;101534.89;1685139;83;21215;-58
2021/01/04 14:51:47;;;;;;;15.93;12.15;;;;;;;0.54;100.00;101534.89;1731561;81;21083;-59
2021/01/04 14:54:16;;;;;;;17.48;12.25;;;;;;;0.54;100.00;101537.45;1723833;81;21209;-58
2021/01/04 14:56:46;;;;;;;16.70;11.35;;;;;;;0.54;100.00;101537.45;1730499;81;21490;-57
2021/01/04 14:59:14;;;;;;;24.30;17.07;;;;;;;0.55;100.00;101533.14;1722612;81;20992;-59
2021/01/04 15:01:43;;;;;;;20.27;14.13;;;;;;;0.56;100.00;101528.37;1728270;81;20995;-59
2021/01/04 15:04:12;;;;;;;26.23;16.52;;;;;;;0.56;100.00;101521.95;1724185;81;21205;-58
2021/01/04 15:06:40;;;;;;;22.73;15.10;;;;;;;0.56;100.00;101526.62;1733548;81;21198;-58
2021/01/04 15:09:09;;;;;;;19.73;14.30;;;;;;;0.59;100.00;101521.33;1728804;82;20990;-58
2021/01/04 15:11:37;;;;;;;21.70;14.90;;;;;;;0.62;100.00;101526.30;1708907;82;21082;-59
2021/01/04 15:14:05;;;;;;;19.30;14.07;;;;;;;0.65;100.00;101529.15;1730907;81;21085;-57
2021/01/04 15:16:44;;;;;;;16.60;12.50;;;;;;;0.68;100.00;101528.52;1735544;81;21170;-58
2021/01/04 15:19:14;;;;;;;14.07;10.55;;;;;;;0.68;100.00;101529.80;1711491;81;21425;-59
2021/01/04 15:21:43;;;;;;;20.43;13.70;;;;;;;0.69;100.00;101527.59;1668755;84;21200;-59
2021/01/04 15:24:11;;;;;;;14.00;9.43;;;;;;;0.69;100.00;101533.19;1719638;81;21726;-59
2021/01/04 15:26:40;;;;;;;16.60;10.58;;;;;;;0.69;100.00;101530.62;1717143;81;22640;-57
2021/01/04 15:29:08;;;;;;;15.78;11.90;;;;;;;0.67;100.00;101525.56;1718809;81;21571;-58
2021/01/04 15:31:37;;;;;;;13.48;10.40;;;;;;;0.68;100.00;101528.95;1720268;81;21480;-58
2021/01/04 15:34:05;;;;;;;12.50;9.38;;;;;;;0.69;100.00;101536.58;1715789;81;21160;-58
2021/01/04 15:36:34;;;;;;;14.30;10.58;;;;;;;0.69;100.00;101529.34;1719340;81;21122;-58
2021/01/04 15:39:02;;;;;;;15.23;11.10;;;;;;;0.69;100.00;101522.92;1719999;81;21547;-58
2021/01/04 15:41:31;;;;;;;15.32;12.93;;;;;;;0.68;100.00;101523.39;1716489;81;21157;-58
2021/01/04 15:44:01;;;;;;;12.93;9.73;;;;;;;0.70;100.00;101522.00;1717580;81;21316;-59
2021/01/04 15:46:31;;;;;;;14.63;11.45;;;;;;;0.71;100.00;101518.05;1716042;81;21668;-57
2021/01/04 15:49:00;;;;;;;17.40;13.90;;;;;;;0.71;100.00;101523.19;1714878;81;21153;-58
2021/01/04 15:51:28;;;;;;;79.42;60.50;;;;;;;0.72;100.00;101526.14;1715031;81;21086;-59
2021/01/04 15:53:57;;;;;;;120.22;76.30;;;;;;;0.73;100.00;101522.66;1714400;81;21085;-60
2021/01/04 15:56:26;;;;;;;21.57;13.85;;;;;;;0.76;100.00;101525.52;1714116;81;21391;-59